sensor_id;sensor_type;location;lat;lon;timestamp;P1;durP1;ratioP1;P2;durP2;ratioP2
27013;SDS011;14556;52.222;4.510;2022-11-21T00:00:42;64.40;;;26.10;;
27013;SDS011;14556;52.222;4.510;2022-11-21T00:03:11;59.10;;;24.97;;
27013;SDS011;14556;52.222;4.510;2022-11-21T00:05:38;74.27;;;26.20;;
27013;SDS011;14556;52.222;4.510;2022-11-21T00:08:09;69.23;;;27.27;;
27013;SDS011;14556;52.222;4.510;2022-11-21T00:10:38;67.57;;;26.77;;
27013;SDS011;14556;52.222;4.510;2022-11-21T00:13:05;67.53;;;25.20;;
27013;SDS011;14556;52.222;4.510;2022-11-21T00:15:33;64.17;;;25.60;;
27013;SDS011;14556;52.222;4.510;2022-11-21T00:18:03;62.77;;;24.97;;
27013;SDS011;14556;52.222;4.510;2022-11-21T00:20:30;59.63;;;25.47;;
27013;SDS011;14556;52.222;4.510;2022-11-21T00:22:57;66.63;;;25.60;;
27013;SDS011;14556;52.222;4.510;2022-11-21T00:25:23;65.00;;;24.83;;
27013;SDS011;14556;52.222;4.510;2022-11-21T00:27:51;68.57;;;25.37;;
27013;SDS011;14556;52.222;4.510;2022-11-21T00:30:18;64.83;;;25.03;;
27013;SDS011;14556;52.222;4.510;2022-11-21T00:32:44;60.70;;;24.43;;
27013;SDS011;14556;52.222;4.510;2022-11-21T00:35:10;61.63;;;24.87;;
27013;SDS011;14556;52.222;4.510;2022-11-21T00:37:37;64.30;;;23.67;;
27013;SDS011;14556;52.222;4.510;2022-11-21T00:40:04;61.50;;;23.53;;
27013;SDS011;14556;52.222;4.510;2022-11-21T00:42:31;61.67;;;25.00;;
27013;SDS011;14556;52.222;4.510;2022-11-21T00:44:57;54.27;;;23.10;;
27013;SDS011;14556;52.222;4.510;2022-11-21T00:47:24;64.30;;;25.27;;
27013;SDS011;14556;52.222;4.510;2022-11-21T00:49:51;63.77;;;24.50;;
27013;SDS011;14556;52.222;4.510;2022-11-21T00:52:17;59.80;;;22.83;;
27013;SDS011;14556;52.222;4.510;2022-11-21T00:54:44;55.10;;;22.50;;
27013;SDS011;14556;52.222;4.510;2022-11-21T00:57:10;66.83;;;24.53;;
27013;SDS011;14556;52.222;4.510;2022-11-21T00:59:36;63.53;;;24.97;;
27013;SDS011;14556;52.222;4.510;2022-11-21T01:02:03;68.57;;;24.87;;
27013;SDS011;14556;52.222;4.510;2022-11-21T01:04:31;62.77;;;23.87;;
27013;SDS011;14556;52.222;4.510;2022-11-21T01:06:58;69.00;;;24.30;;
27013;SDS011;14556;52.222;4.510;2022-11-21T01:09:25;58.27;;;23.07;;
27013;SDS011;14556;52.222;4.510;2022-11-21T01:11:54;62.10;;;23.07;;
27013;SDS011;14556;52.222;4.510;2022-11-21T01:14:20;70.93;;;24.73;;
27013;SDS011;14556;52.222;4.510;2022-11-21T01:16:47;62.40;;;24.40;;
27013;SDS011;14556;52.222;4.510;2022-11-21T01:19:13;71.70;;;25.83;;
27013;SDS011;14556;52.222;4.510;2022-11-21T01:21:40;73.17;;;25.60;;
27013;SDS011;14556;52.222;4.510;2022-11-21T01:24:08;55.83;;;20.97;;
27013;SDS011;14556;52.222;4.510;2022-11-21T01:26:36;54.63;;;22.67;;
27013;SDS011;14556;52.222;4.510;2022-11-21T01:29:03;67.30;;;23.67;;
27013;SDS011;14556;52.222;4.510;2022-11-21T01:31:30;63.83;;;21.67;;
27013;SDS011;14556;52.222;4.510;2022-11-21T01:33:58;61.70;;;24.00;;
27013;SDS011;14556;52.222;4.510;2022-11-21T01:36:26;62.70;;;23.77;;
27013;SDS011;14556;52.222;4.510;2022-11-21T01:38:55;61.17;;;23.70;;
27013;SDS011;14556;52.222;4.510;2022-11-21T01:41:25;65.10;;;25.17;;
27013;SDS011;14556;52.222;4.510;2022-11-21T01:43:55;70.30;;;22.50;;
27013;SDS011;14556;52.222;4.510;2022-11-21T01:46:21;55.73;;;21.50;;
27013;SDS011;14556;52.222;4.510;2022-11-21T01:56:48;63.77;;;23.63;;
27013;SDS011;14556;52.222;4.510;2022-11-21T01:59:26;60.30;;;23.03;;
27013;SDS011;14556;52.222;4.510;2022-11-21T02:01:58;57.23;;;21.73;;
27013;SDS011;14556;52.222;4.510;2022-11-21T02:04:27;64.23;;;23.67;;
27013;SDS011;14556;52.222;4.510;2022-11-21T02:07:00;70.27;;;25.00;;
27013;SDS011;14556;52.222;4.510;2022-11-21T02:09:30;68.07;;;23.20;;
27013;SDS011;14556;52.222;4.510;2022-11-21T02:11:59;70.87;;;23.70;;
27013;SDS011;14556;52.222;4.510;2022-11-21T02:14:30;58.97;;;21.90;;
27013;SDS011;14556;52.222;4.510;2022-11-21T02:16:59;63.97;;;22.73;;
27013;SDS011;14556;52.222;4.510;2022-11-21T02:19:36;53.73;;;20.53;;
27013;SDS011;14556;52.222;4.510;2022-11-21T02:22:17;58.80;;;21.47;;
27013;SDS011;14556;52.222;4.510;2022-11-21T02:27:27;67.37;;;21.83;;
27013;SDS011;14556;52.222;4.510;2022-11-21T02:29:54;66.03;;;23.13;;
27013;SDS011;14556;52.222;4.510;2022-11-21T02:32:21;57.30;;;21.00;;
27013;SDS011;14556;52.222;4.510;2022-11-21T02:34:49;60.90;;;21.57;;
27013;SDS011;14556;52.222;4.510;2022-11-21T02:37:16;58.80;;;22.97;;
27013;SDS011;14556;52.222;4.510;2022-11-21T02:39:43;70.77;;;24.50;;
27013;SDS011;14556;52.222;4.510;2022-11-21T02:45:24;62.20;;;23.70;;
27013;SDS011;14556;52.222;4.510;2022-11-21T02:47:55;53.67;;;23.37;;
27013;SDS011;14556;52.222;4.510;2022-11-21T02:50:30;63.57;;;23.47;;
27013;SDS011;14556;52.222;4.510;2022-11-21T02:52:58;62.80;;;24.70;;
27013;SDS011;14556;52.222;4.510;2022-11-21T02:55:24;63.43;;;22.63;;
27013;SDS011;14556;52.222;4.510;2022-11-21T02:57:51;65.67;;;24.63;;
27013;SDS011;14556;52.222;4.510;2022-11-21T03:00:18;65.13;;;25.03;;
27013;SDS011;14556;52.222;4.510;2022-11-21T03:02:45;58.23;;;23.27;;
27013;SDS011;14556;52.222;4.510;2022-11-21T03:05:13;66.53;;;24.93;;
27013;SDS011;14556;52.222;4.510;2022-11-21T03:07:41;63.33;;;23.30;;
27013;SDS011;14556;52.222;4.510;2022-11-21T03:10:08;67.20;;;25.63;;
27013;SDS011;14556;52.222;4.510;2022-11-21T03:12:36;69.43;;;26.30;;
27013;SDS011;14556;52.222;4.510;2022-11-21T03:15:04;58.47;;;22.77;;
27013;SDS011;14556;52.222;4.510;2022-11-21T03:17:31;71.20;;;25.27;;
27013;SDS011;14556;52.222;4.510;2022-11-21T03:19:59;71.60;;;24.80;;
27013;SDS011;14556;52.222;4.510;2022-11-21T03:22:26;72.53;;;25.23;;
27013;SDS011;14556;52.222;4.510;2022-11-21T03:24:53;82.07;;;22.83;;
27013;SDS011;14556;52.222;4.510;2022-11-21T03:27:19;78.87;;;23.07;;
27013;SDS011;14556;52.222;4.510;2022-11-21T03:29:46;72.40;;;23.90;;
27013;SDS011;14556;52.222;4.510;2022-11-21T03:32:12;67.80;;;21.43;;
27013;SDS011;14556;52.222;4.510;2022-11-21T03:34:39;67.47;;;23.13;;
27013;SDS011;14556;52.222;4.510;2022-11-21T03:37:05;50.93;;;20.50;;
27013;SDS011;14556;52.222;4.510;2022-11-21T03:39:32;59.30;;;20.90;;
27013;SDS011;14556;52.222;4.510;2022-11-21T03:41:58;62.97;;;19.30;;
27013;SDS011;14556;52.222;4.510;2022-11-21T03:44:24;69.90;;;19.33;;
27013;SDS011;14556;52.222;4.510;2022-11-21T03:46:51;52.37;;;18.17;;
27013;SDS011;14556;52.222;4.510;2022-11-21T03:49:18;54.67;;;18.47;;
27013;SDS011;14556;52.222;4.510;2022-11-21T03:51:44;65.73;;;18.70;;
27013;SDS011;14556;52.222;4.510;2022-11-21T03:54:13;57.13;;;17.00;;
27013;SDS011;14556;52.222;4.510;2022-11-21T03:56:41;72.83;;;20.17;;
27013;SDS011;14556;52.222;4.510;2022-11-21T03:59:07;66.83;;;18.17;;
27013;SDS011;14556;52.222;4.510;2022-11-21T04:01:34;61.80;;;18.43;;
27013;SDS011;14556;52.222;4.510;2022-11-21T04:04:02;58.30;;;18.73;;
27013;SDS011;14556;52.222;4.510;2022-11-21T04:06:29;60.67;;;18.27;;
27013;SDS011;14556;52.222;4.510;2022-11-21T04:08:56;65.93;;;18.83;;
27013;SDS011;14556;52.222;4.510;2022-11-21T04:11:23;75.40;;;20.57;;
27013;SDS011;14556;52.222;4.510;2022-11-21T04:13:50;56.83;;;19.00;;
27013;SDS011;14556;52.222;4.510;2022-11-21T04:16:17;52.57;;;17.47;;
27013;SDS011;14556;52.222;4.510;2022-11-21T04:18:44;55.67;;;19.90;;
27013;SDS011;14556;52.222;4.510;2022-11-21T04:21:10;49.80;;;19.07;;
27013;SDS011;14556;52.222;4.510;2022-11-21T04:23:36;46.63;;;17.80;;
27013;SDS011;14556;52.222;4.510;2022-11-21T04:26:03;43.33;;;20.03;;
27013;SDS011;14556;52.222;4.510;2022-11-21T04:28:29;44.33;;;18.93;;
27013;SDS011;14556;52.222;4.510;2022-11-21T04:31:00;58.00;;;20.67;;
27013;SDS011;14556;52.222;4.510;2022-11-21T04:33:35;54.77;;;21.20;;
27013;SDS011;14556;52.222;4.510;2022-11-21T04:36:01;54.83;;;19.27;;
27013;SDS011;14556;52.222;4.510;2022-11-21T04:38:28;47.47;;;17.60;;
27013;SDS011;14556;52.222;4.510;2022-11-21T04:40:54;52.70;;;20.50;;
27013;SDS011;14556;52.222;4.510;2022-11-21T04:43:21;38.43;;;16.63;;
27013;SDS011;14556;52.222;4.510;2022-11-21T04:45:47;41.33;;;17.00;;
27013;SDS011;14556;52.222;4.510;2022-11-21T04:48:13;46.37;;;19.57;;
27013;SDS011;14556;52.222;4.510;2022-11-21T04:50:40;40.13;;;16.97;;
27013;SDS011;14556;52.222;4.510;2022-11-21T04:53:06;50.60;;;17.33;;
27013;SDS011;14556;52.222;4.510;2022-11-21T04:55:33;44.50;;;16.37;;
27013;SDS011;14556;52.222;4.510;2022-11-21T04:57:59;55.73;;;18.60;;
27013;SDS011;14556;52.222;4.510;2022-11-21T05:00:26;46.23;;;18.10;;
27013;SDS011;14556;52.222;4.510;2022-11-21T05:02:52;47.50;;;18.80;;
27013;SDS011;14556;52.222;4.510;2022-11-21T05:05:19;57.43;;;17.90;;
27013;SDS011;14556;52.222;4.510;2022-11-21T05:07:45;44.47;;;19.60;;
27013;SDS011;14556;52.222;4.510;2022-11-21T05:10:12;42.43;;;17.47;;
27013;SDS011;14556;52.222;4.510;2022-11-21T05:12:38;57.67;;;19.27;;
27013;SDS011;14556;52.222;4.510;2022-11-21T05:15:23;46.73;;;17.50;;
27013;SDS011;14556;52.222;4.510;2022-11-21T05:17:50;34.90;;;16.70;;
27013;SDS011;14556;52.222;4.510;2022-11-21T05:20:17;46.17;;;18.13;;
27013;SDS011;14556;52.222;4.510;2022-11-21T05:22:44;54.43;;;18.93;;
27013;SDS011;14556;52.222;4.510;2022-11-21T05:25:15;44.07;;;16.63;;
27013;SDS011;14556;52.222;4.510;2022-11-21T05:27:42;39.30;;;17.60;;
27013;SDS011;14556;52.222;4.510;2022-11-21T05:30:09;35.60;;;15.93;;
27013;SDS011;14556;52.222;4.510;2022-11-21T05:32:36;29.57;;;14.27;;
27013;SDS011;14556;52.222;4.510;2022-11-21T05:35:03;33.23;;;15.80;;
27013;SDS011;14556;52.222;4.510;2022-11-21T05:37:29;29.23;;;13.17;;
27013;SDS011;14556;52.222;4.510;2022-11-21T05:39:56;31.77;;;15.40;;
27013;SDS011;14556;52.222;4.510;2022-11-21T05:42:22;38.77;;;17.53;;
27013;SDS011;14556;52.222;4.510;2022-11-21T05:45:09;28.33;;;13.40;;
27013;SDS011;14556;52.222;4.510;2022-11-21T05:47:35;30.47;;;14.77;;
27013;SDS011;14556;52.222;4.510;2022-11-21T05:50:02;30.80;;;13.03;;
27013;SDS011;14556;52.222;4.510;2022-11-21T05:52:30;34.23;;;15.00;;
27013;SDS011;14556;52.222;4.510;2022-11-21T05:54:56;32.77;;;15.40;;
27013;SDS011;14556;52.222;4.510;2022-11-21T05:57:23;30.10;;;14.83;;
27013;SDS011;14556;52.222;4.510;2022-11-21T05:59:49;32.40;;;16.57;;
27013;SDS011;14556;52.222;4.510;2022-11-21T06:02:16;28.87;;;14.57;;
27013;SDS011;14556;52.222;4.510;2022-11-21T06:05:03;27.57;;;13.93;;
27013;SDS011;14556;52.222;4.510;2022-11-21T06:07:29;26.27;;;13.70;;
27013;SDS011;14556;52.222;4.510;2022-11-21T06:09:56;33.40;;;16.00;;
27013;SDS011;14556;52.222;4.510;2022-11-21T06:12:22;33.57;;;15.57;;
27013;SDS011;14556;52.222;4.510;2022-11-21T06:14:51;34.53;;;16.27;;
27013;SDS011;14556;52.222;4.510;2022-11-21T06:17:17;33.37;;;14.87;;
27013;SDS011;14556;52.222;4.510;2022-11-21T06:19:43;35.93;;;18.10;;
27013;SDS011;14556;52.222;4.510;2022-11-21T06:22:10;29.80;;;15.90;;
27013;SDS011;14556;52.222;4.510;2022-11-21T06:24:36;33.63;;;15.97;;
27013;SDS011;14556;52.222;4.510;2022-11-21T06:27:03;30.90;;;15.17;;
27013;SDS011;14556;52.222;4.510;2022-11-21T06:29:29;34.27;;;16.83;;
27013;SDS011;14556;52.222;4.510;2022-11-21T06:31:55;33.53;;;17.07;;
27013;SDS011;14556;52.222;4.510;2022-11-21T06:34:24;43.73;;;16.87;;
27013;SDS011;14556;52.222;4.510;2022-11-21T06:36:52;34.47;;;16.30;;
27013;SDS011;14556;52.222;4.510;2022-11-21T06:39:18;37.73;;;17.00;;
27013;SDS011;14556;52.222;4.510;2022-11-21T06:41:45;39.17;;;17.37;;
27013;SDS011;14556;52.222;4.510;2022-11-21T06:44:16;37.93;;;16.70;;
27013;SDS011;14556;52.222;4.510;2022-11-21T06:46:43;39.73;;;17.27;;
27013;SDS011;14556;52.222;4.510;2022-11-21T06:49:16;39.13;;;18.20;;
27013;SDS011;14556;52.222;4.510;2022-11-21T06:51:42;36.67;;;16.73;;
27013;SDS011;14556;52.222;4.510;2022-11-21T06:54:09;35.80;;;18.07;;
27013;SDS011;14556;52.222;4.510;2022-11-21T06:56:53;29.33;;;14.50;;
27013;SDS011;14556;52.222;4.510;2022-11-21T06:59:20;42.93;;;18.43;;
27013;SDS011;14556;52.222;4.510;2022-11-21T07:01:47;36.17;;;16.80;;
27013;SDS011;14556;52.222;4.510;2022-11-21T07:04:13;38.23;;;17.40;;
27013;SDS011;14556;52.222;4.510;2022-11-21T07:06:39;36.17;;;16.23;;
27013;SDS011;14556;52.222;4.510;2022-11-21T07:09:06;41.70;;;18.57;;
27013;SDS011;14556;52.222;4.510;2022-11-21T07:11:52;34.70;;;16.40;;
27013;SDS011;14556;52.222;4.510;2022-11-21T07:14:19;45.00;;;17.87;;
27013;SDS011;14556;52.222;4.510;2022-11-21T07:16:45;26.47;;;12.33;;
27013;SDS011;14556;52.222;4.510;2022-11-21T07:19:12;31.27;;;15.47;;
27013;SDS011;14556;52.222;4.510;2022-11-21T07:21:38;34.07;;;17.33;;
27013;SDS011;14556;52.222;4.510;2022-11-21T07:24:04;30.77;;;15.03;;
27013;SDS011;14556;52.222;4.510;2022-11-21T07:26:31;34.77;;;16.43;;
27013;SDS011;14556;52.222;4.510;2022-11-21T07:28:57;31.00;;;15.70;;
27013;SDS011;14556;52.222;4.510;2022-11-21T07:31:24;32.83;;;15.77;;
27013;SDS011;14556;52.222;4.510;2022-11-21T07:33:50;29.17;;;15.13;;
27013;SDS011;14556;52.222;4.510;2022-11-21T07:36:17;27.97;;;14.73;;
27013;SDS011;14556;52.222;4.510;2022-11-21T07:38:44;29.30;;;15.53;;
27013;SDS011;14556;52.222;4.510;2022-11-21T07:41:11;27.27;;;14.73;;
27013;SDS011;14556;52.222;4.510;2022-11-21T07:43:38;33.80;;;15.80;;
27013;SDS011;14556;52.222;4.510;2022-11-21T07:46:04;32.70;;;15.37;;
27013;SDS011;14556;52.222;4.510;2022-11-21T07:48:31;34.17;;;16.97;;
27013;SDS011;14556;52.222;4.510;2022-11-21T07:50:57;31.63;;;14.63;;
27013;SDS011;14556;52.222;4.510;2022-11-21T07:53:24;38.53;;;17.80;;
27013;SDS011;14556;52.222;4.510;2022-11-21T07:55:50;32.80;;;16.30;;
27013;SDS011;14556;52.222;4.510;2022-11-21T07:58:16;37.30;;;15.53;;
27013;SDS011;14556;52.222;4.510;2022-11-21T08:00:43;33.37;;;14.93;;
27013;SDS011;14556;52.222;4.510;2022-11-21T08:03:10;39.97;;;16.33;;
27013;SDS011;14556;52.222;4.510;2022-11-21T08:05:41;37.13;;;16.53;;
27013;SDS011;14556;52.222;4.510;2022-11-21T08:08:12;36.93;;;15.70;;
27013;SDS011;14556;52.222;4.510;2022-11-21T08:10:42;33.60;;;15.53;;
27013;SDS011;14556;52.222;4.510;2022-11-21T08:13:10;37.90;;;16.43;;
27013;SDS011;14556;52.222;4.510;2022-11-21T08:15:37;32.27;;;15.80;;
27013;SDS011;14556;52.222;4.510;2022-11-21T08:18:11;39.33;;;15.83;;
27013;SDS011;14556;52.222;4.510;2022-11-21T08:20:39;36.53;;;16.27;;
27013;SDS011;14556;52.222;4.510;2022-11-21T08:23:06;35.60;;;15.90;;
27013;SDS011;14556;52.222;4.510;2022-11-21T08:25:33;35.00;;;15.93;;
27013;SDS011;14556;52.222;4.510;2022-11-21T08:28:01;34.07;;;14.87;;
27013;SDS011;14556;52.222;4.510;2022-11-21T08:30:28;45.00;;;16.10;;
27013;SDS011;14556;52.222;4.510;2022-11-21T08:32:58;51.40;;;17.23;;
27013;SDS011;14556;52.222;4.510;2022-11-21T08:35:26;42.27;;;14.63;;
27013;SDS011;14556;52.222;4.510;2022-11-21T08:37:59;35.87;;;14.90;;
27013;SDS011;14556;52.222;4.510;2022-11-21T08:40:27;38.23;;;14.43;;
27013;SDS011;14556;52.222;4.510;2022-11-21T08:42:58;35.30;;;15.60;;
27013;SDS011;14556;52.222;4.510;2022-11-21T08:45:25;32.60;;;14.83;;
27013;SDS011;14556;52.222;4.510;2022-11-21T08:47:52;40.63;;;13.47;;
27013;SDS011;14556;52.222;4.510;2022-11-21T08:50:19;25.00;;;12.20;;
27013;SDS011;14556;52.222;4.510;2022-11-21T08:52:47;39.90;;;13.50;;
27013;SDS011;14556;52.222;4.510;2022-11-21T08:55:13;30.40;;;11.00;;
27013;SDS011;14556;52.222;4.510;2022-11-21T08:57:41;35.07;;;12.77;;
27013;SDS011;14556;52.222;4.510;2022-11-21T09:00:08;32.43;;;11.43;;
27013;SDS011;14556;52.222;4.510;2022-11-21T09:02:37;19.87;;;10.37;;
27013;SDS011;14556;52.222;4.510;2022-11-21T09:05:04;40.13;;;12.00;;
27013;SDS011;14556;52.222;4.510;2022-11-21T09:07:31;24.30;;;11.67;;
27013;SDS011;14556;52.222;4.510;2022-11-21T09:09:57;27.87;;;12.77;;
27013;SDS011;14556;52.222;4.510;2022-11-21T09:12:25;35.67;;;12.53;;
27013;SDS011;14556;52.222;4.510;2022-11-21T09:14:51;29.33;;;12.60;;
27013;SDS011;14556;52.222;4.510;2022-11-21T09:17:36;26.53;;;11.13;;
27013;SDS011;14556;52.222;4.510;2022-11-21T09:20:21;36.00;;;11.90;;
27013;SDS011;14556;52.222;4.510;2022-11-21T09:22:48;24.17;;;10.70;;
27013;SDS011;14556;52.222;4.510;2022-11-21T09:25:14;33.77;;;11.33;;
27013;SDS011;14556;52.222;4.510;2022-11-21T09:27:41;49.63;;;13.00;;
27013;SDS011;14556;52.222;4.510;2022-11-21T09:30:09;22.97;;;10.57;;
27013;SDS011;14556;52.222;4.510;2022-11-21T09:32:35;34.67;;;12.37;;
27013;SDS011;14556;52.222;4.510;2022-11-21T09:35:02;26.97;;;11.33;;
27013;SDS011;14556;52.222;4.510;2022-11-21T09:37:34;30.30;;;10.70;;
27013;SDS011;14556;52.222;4.510;2022-11-21T09:40:02;27.27;;;10.33;;
27013;SDS011;14556;52.222;4.510;2022-11-21T09:42:48;23.50;;;10.37;;
27013;SDS011;14556;52.222;4.510;2022-11-21T09:45:31;22.00;;;10.83;;
27013;SDS011;14556;52.222;4.510;2022-11-21T09:48:03;26.43;;;10.27;;
27013;SDS011;14556;52.222;4.510;2022-11-21T09:50:37;26.13;;;11.20;;
27013;SDS011;14556;52.222;4.510;2022-11-21T09:53:18;34.90;;;11.73;;
27013;SDS011;14556;52.222;4.510;2022-11-21T09:55:47;28.17;;;12.13;;
27013;SDS011;14556;52.222;4.510;2022-11-21T10:01:11;25.40;;;11.93;;
27013;SDS011;14556;52.222;4.510;2022-11-21T10:03:43;23.37;;;11.77;;
27013;SDS011;14556;52.222;4.510;2022-11-21T10:06:16;25.10;;;11.50;;
27013;SDS011;14556;52.222;4.510;2022-11-21T10:26:53;35.70;;;12.43;;
27013;SDS011;14556;52.222;4.510;2022-11-21T10:29:27;25.80;;;11.90;;
27013;SDS011;14556;52.222;4.510;2022-11-21T10:32:42;26.83;;;12.17;;
27013;SDS011;14556;52.222;4.510;2022-11-21T10:34:54;30.07;;;12.17;;
27013;SDS011;14556;52.222;4.510;2022-11-21T10:37:26;26.57;;;11.73;;
27013;SDS011;14556;52.222;4.510;2022-11-21T10:40:08;26.40;;;11.33;;
27013;SDS011;14556;52.222;4.510;2022-11-21T10:42:50;23.63;;;11.53;;
27013;SDS011;14556;52.222;4.510;2022-11-21T10:45:23;27.23;;;12.33;;
27013;SDS011;14556;52.222;4.510;2022-11-21T10:47:50;25.30;;;11.77;;
27013;SDS011;14556;52.222;4.510;2022-11-21T10:50:31;20.50;;;9.77;;
27013;SDS011;14556;52.222;4.510;2022-11-21T10:58:47;17.73;;;9.50;;
27013;SDS011;14556;52.222;4.510;2022-11-21T11:01:19;26.70;;;8.70;;
27013;SDS011;14556;52.222;4.510;2022-11-21T11:04:03;25.20;;;10.17;;
27013;SDS011;14556;52.222;4.510;2022-11-21T11:06:50;19.43;;;7.57;;
27013;SDS011;14556;52.222;4.510;2022-11-21T11:12:39;16.37;;;7.93;;
27013;SDS011;14556;52.222;4.510;2022-11-21T11:15:18;13.80;;;6.57;;
27013;SDS011;14556;52.222;4.510;2022-11-21T11:17:51;12.10;;;5.77;;
27013;SDS011;14556;52.222;4.510;2022-11-21T11:22:59;15.67;;;6.57;;
27013;SDS011;14556;52.222;4.510;2022-11-21T11:25:25;19.57;;;6.23;;
27013;SDS011;14556;52.222;4.510;2022-11-21T11:27:52;14.00;;;5.93;;
27013;SDS011;14556;52.222;4.510;2022-11-21T11:30:18;12.47;;;5.13;;
27013;SDS011;14556;52.222;4.510;2022-11-21T11:32:45;12.20;;;5.33;;
27013;SDS011;14556;52.222;4.510;2022-11-21T11:37:45;10.83;;;4.63;;
27013;SDS011;14556;52.222;4.510;2022-11-21T11:40:36;13.87;;;5.40;;
27013;SDS011;14556;52.222;4.510;2022-11-21T11:52:24;20.23;;;4.77;;
27013;SDS011;14556;52.222;4.510;2022-11-21T11:54:57;12.80;;;5.77;;
27013;SDS011;14556;52.222;4.510;2022-11-21T11:57:29;11.43;;;4.97;;
27013;SDS011;14556;52.222;4.510;2022-11-21T12:00:06;12.97;;;4.87;;
27013;SDS011;14556;52.222;4.510;2022-11-21T12:02:56;20.50;;;6.07;;
27013;SDS011;14556;52.222;4.510;2022-11-21T12:05:27;18.63;;;6.40;;
27013;SDS011;14556;52.222;4.510;2022-11-21T12:08:02;18.67;;;6.70;;
27013;SDS011;14556;52.222;4.510;2022-11-21T12:10:54;13.47;;;5.70;;
27013;SDS011;14556;52.222;4.510;2022-11-21T12:14:00;15.67;;;6.17;;
27013;SDS011;14556;52.222;4.510;2022-11-21T12:16:32;14.63;;;5.50;;
27013;SDS011;14556;52.222;4.510;2022-11-21T12:19:02;21.13;;;5.93;;
27013;SDS011;14556;52.222;4.510;2022-11-21T12:21:36;22.33;;;6.10;;
27013;SDS011;14556;52.222;4.510;2022-11-21T12:24:02;21.50;;;6.70;;
27013;SDS011;14556;52.222;4.510;2022-11-21T12:31:55;16.87;;;5.50;;
27013;SDS011;14556;52.222;4.510;2022-11-21T12:37:12;17.40;;;5.97;;
27013;SDS011;14556;52.222;4.510;2022-11-21T12:40:03;25.90;;;6.03;;
27013;SDS011;14556;52.222;4.510;2022-11-21T12:42:53;20.53;;;6.23;;
27013;SDS011;14556;52.222;4.510;2022-11-21T12:45:45;19.23;;;5.07;;
27013;SDS011;14556;52.222;4.510;2022-11-21T12:51:22;14.00;;;4.90;;
27013;SDS011;14556;52.222;4.510;2022-11-21T12:57:28;17.17;;;4.93;;
27013;SDS011;14556;52.222;4.510;2022-11-21T13:05:48;22.73;;;6.20;;
27013;SDS011;14556;52.222;4.510;2022-11-21T13:08:21;16.93;;;4.90;;
27013;SDS011;14556;52.222;4.510;2022-11-21T13:11:08;20.00;;;4.90;;
27013;SDS011;14556;52.222;4.510;2022-11-21T13:14:11;21.97;;;6.13;;
27013;SDS011;14556;52.222;4.510;2022-11-21T13:16:44;22.83;;;5.90;;
27013;SDS011;14556;52.222;4.510;2022-11-21T13:19:16;25.43;;;6.30;;
27013;SDS011;14556;52.222;4.510;2022-11-21T13:21:52;23.40;;;6.53;;
27013;SDS011;14556;52.222;4.510;2022-11-21T13:24:53;20.10;;;7.20;;
27013;SDS011;14556;52.222;4.510;2022-11-21T13:45:51;16.33;;;6.43;;
27013;SDS011;14556;52.222;4.510;2022-11-21T13:56:54;15.60;;;6.90;;
27013;SDS011;14556;52.222;4.510;2022-11-21T13:59:28;14.53;;;7.40;;
27013;SDS011;14556;52.222;4.510;2022-11-21T14:02:32;16.70;;;7.03;;
27013;SDS011;14556;52.222;4.510;2022-11-21T14:10:44;14.57;;;5.57;;
27013;SDS011;14556;52.222;4.510;2022-11-21T14:18:44;11.93;;;4.63;;
27013;SDS011;14556;52.222;4.510;2022-11-21T14:21:20;8.03;;;4.80;;
27013;SDS011;14556;52.222;4.510;2022-11-21T14:23:59;12.10;;;4.17;;
27013;SDS011;14556;52.222;4.510;2022-11-21T14:26:37;10.70;;;4.70;;
27013;SDS011;14556;52.222;4.510;2022-11-21T14:31:48;12.43;;;4.10;;
27013;SDS011;14556;52.222;4.510;2022-11-21T14:34:28;4.70;;;3.67;;
27013;SDS011;14556;52.222;4.510;2022-11-21T14:36:57;11.13;;;4.50;;
27013;SDS011;14556;52.222;4.510;2022-11-21T14:39:26;10.07;;;3.83;;
27013;SDS011;14556;52.222;4.510;2022-11-21T14:42:05;10.63;;;3.73;;
27013;SDS011;14556;52.222;4.510;2022-11-21T14:44:41;11.73;;;3.13;;
27013;SDS011;14556;52.222;4.510;2022-11-21T14:49:50;10.10;;;3.80;;
27013;SDS011;14556;52.222;4.510;2022-11-21T14:52:38;6.13;;;2.77;;
27013;SDS011;14556;52.222;4.510;2022-11-21T14:55:05;8.37;;;3.47;;
27013;SDS011;14556;52.222;4.510;2022-11-21T14:57:56;6.87;;;3.00;;
27013;SDS011;14556;52.222;4.510;2022-11-21T15:00:26;5.67;;;2.80;;
27013;SDS011;14556;52.222;4.510;2022-11-21T15:03:19;8.40;;;3.07;;
27013;SDS011;14556;52.222;4.510;2022-11-21T15:05:47;9.80;;;3.90;;
27013;SDS011;14556;52.222;4.510;2022-11-21T15:08:33;6.63;;;3.07;;
27013;SDS011;14556;52.222;4.510;2022-11-21T15:11:23;9.27;;;3.83;;
27013;SDS011;14556;52.222;4.510;2022-11-21T15:13:58;12.97;;;3.63;;
27013;SDS011;14556;52.222;4.510;2022-11-21T15:16:42;5.33;;;3.17;;
27013;SDS011;14556;52.222;4.510;2022-11-21T15:19:17;6.77;;;2.83;;
27013;SDS011;14556;52.222;4.510;2022-11-21T15:21:46;7.47;;;3.27;;
27013;SDS011;14556;52.222;4.510;2022-11-21T15:24:32;11.03;;;3.60;;
27013;SDS011;14556;52.222;4.510;2022-11-21T15:29:59;5.57;;;3.03;;
27013;SDS011;14556;52.222;4.510;2022-11-21T15:32:26;5.17;;;2.80;;
27013;SDS011;14556;52.222;4.510;2022-11-21T15:34:53;6.13;;;2.90;;
27013;SDS011;14556;52.222;4.510;2022-11-21T15:37:19;7.97;;;2.87;;
27013;SDS011;14556;52.222;4.510;2022-11-21T15:39:49;8.10;;;2.73;;
27013;SDS011;14556;52.222;4.510;2022-11-21T15:47:45;7.73;;;2.60;;
27013;SDS011;14556;52.222;4.510;2022-11-21T15:50:12;7.60;;;2.70;;
27013;SDS011;14556;52.222;4.510;2022-11-21T15:52:46;13.20;;;3.17;;
27013;SDS011;14556;52.222;4.510;2022-11-21T15:55:24;5.87;;;2.97;;
27013;SDS011;14556;52.222;4.510;2022-11-21T15:57:53;8.80;;;2.77;;
27013;SDS011;14556;52.222;4.510;2022-11-21T16:00:19;10.67;;;3.47;;
27013;SDS011;14556;52.222;4.510;2022-11-21T16:02:46;6.93;;;2.77;;
27013;SDS011;14556;52.222;4.510;2022-11-21T16:05:13;6.87;;;2.67;;
27013;SDS011;14556;52.222;4.510;2022-11-21T16:07:40;6.67;;;2.87;;
27013;SDS011;14556;52.222;4.510;2022-11-21T16:10:08;9.00;;;2.83;;
27013;SDS011;14556;52.222;4.510;2022-11-21T16:12:46;8.17;;;2.97;;
27013;SDS011;14556;52.222;4.510;2022-11-21T16:15:13;7.37;;;2.80;;
27013;SDS011;14556;52.222;4.510;2022-11-21T16:17:39;5.70;;;2.50;;
27013;SDS011;14556;52.222;4.510;2022-11-21T16:20:07;6.93;;;3.20;;
27013;SDS011;14556;52.222;4.510;2022-11-21T16:22:33;11.97;;;3.70;;
27013;SDS011;14556;52.222;4.510;2022-11-21T16:25:00;8.40;;;3.10;;
27013;SDS011;14556;52.222;4.510;2022-11-21T16:27:26;7.03;;;2.53;;
27013;SDS011;14556;52.222;4.510;2022-11-21T16:29:53;6.50;;;2.80;;
27013;SDS011;14556;52.222;4.510;2022-11-21T16:32:19;7.53;;;2.67;;
27013;SDS011;14556;52.222;4.510;2022-11-21T16:34:46;8.40;;;2.50;;
27013;SDS011;14556;52.222;4.510;2022-11-21T16:37:12;10.00;;;2.50;;
27013;SDS011;14556;52.222;4.510;2022-11-21T16:39:39;10.07;;;2.80;;
27013;SDS011;14556;52.222;4.510;2022-11-21T16:42:08;9.93;;;3.13;;
27013;SDS011;14556;52.222;4.510;2022-11-21T16:44:36;9.17;;;3.50;;
27013;SDS011;14556;52.222;4.510;2022-11-21T16:47:02;5.67;;;2.87;;
27013;SDS011;14556;52.222;4.510;2022-11-21T16:49:34;9.37;;;3.40;;
27013;SDS011;14556;52.222;4.510;2022-11-21T16:52:01;7.70;;;2.20;;
27013;SDS011;14556;52.222;4.510;2022-11-21T16:54:31;8.13;;;3.07;;